Time;durP1;ratioP1;P1;durP2;ratioP2;P2;SDS_P1;SDS_P2;PMS_P1;PMS_P2;Temp;Humidity;BMP_temperature;BMP_pressure;BME280_temperature;BME280_humidity;BME280_pressure;Samples;Min_cycle;Max_cycle;Signal;HPM_P1;HPM_P2
2023/04/01 00:00:30;;;;;;;5.13;1.48;;;10.40;1.00;;;;;;5000483;28;20041;-76
2023/04/01 00:02:57;;;;;;;4.00;0.70;;;10.30;1.00;;;;;;5001274;28;20042;-76
2023/04/01 00:05:25;;;;;;;6.35;0.70;;;10.20;1.00;;;;;;5001284;28;20037;-76
2023/04/01 00:07:51;;;;;;;1.80;0.40;;;10.30;1.00;;;;;;5001625;28;20030;-76
2023/04/01 00:10:17;;;;;;;2.80;0.77;;;10.20;1.00;;;;;;5001569;28;20041;-81
2023/04/01 00:12:44;;;;;;;5.90;0.80;;;10.30;1.00;;;;;;5000839;28;20438;-76
2023/04/01 00:15:11;;;;;;;4.40;1.42;;;10.30;1.00;;;;;;5003564;28;20471;-76
2023/04/01 00:17:38;;;;;;;3.08;0.85;;;10.30;1.00;;;;;;4998218;28;20229;-77
2023/04/01 00:20:07;;;;;;;3.03;0.68;;;10.20;1.00;;;;;;5003902;28;20037;-76
2023/04/01 00:22:33;;;;;;;3.67;0.82;;;10.20;1.00;;;;;;4985249;28;20041;-76
2023/04/01 00:25:00;;;;;;;5.45;0.85;;;10.10;1.00;;;;;;5003499;28;20041;-77
2023/04/01 00:27:26;;;;;;;5.75;1.05;;;10.10;1.00;;;;;;4999651;28;20030;-76
2023/04/01 00:29:52;;;;;;;7.97;0.80;;;10.10;1.00;;;;;;5002787;28;20031;-76
2023/04/01 00:32:18;;;;;;;5.38;1.60;;;10.00;1.00;;;;;;4999790;28;20026;-75
2023/04/01 00:34:51;;;;;;;5.10;1.60;;;10.00;1.00;;;;;;5003979;28;20034;-76
2023/04/01 00:37:18;;;;;;;5.05;1.00;;;10.10;1.00;;;;;;5001990;28;20081;-76
2023/04/01 00:39:44;;;;;;;4.55;1.48;;;10.20;1.00;;;;;;4999973;28;20460;-76
2023/04/01 00:42:11;;;;;;;5.13;1.42;;;10.30;1.00;;;;;;4999852;28;20049;-76
2023/04/01 00:44:38;;;;;;;8.25;2.22;;;10.30;1.00;;;;;;5002391;28;20030;-76
2023/04/01 00:47:04;;;;;;;5.85;1.67;;;10.30;1.00;;;;;;4998707;28;20043;-76
2023/04/01 00:49:36;;;;;;;5.20;1.35;;;10.30;1.00;;;;;;5002899;28;20383;-77
2023/04/01 00:52:04;;;;;;;4.03;0.82;;;10.40;1.00;;;;;;5001197;28;20061;-77
2023/04/01 00:54:32;;;;;;;4.88;0.90;;;10.40;1.00;;;;;;4985496;28;20030;-76
2023/04/01 00:57:03;;;;;;;3.05;0.85;;;10.40;1.00;;;;;;5000330;28;20022;-76
2023/04/01 00:59:34;;;;;;;3.40;0.95;;;10.30;1.00;;;;;;4962773;28;20057;-76
2023/04/01 01:02:01;;;;;;;;;;;10.30;1.00;;;;;;4985236;28;20049;-76
2023/04/01 01:04:30;;;;;;;6.25;0.90;;;10.20;1.00;;;;;;4997538;28;19921;-77
2023/04/01 01:07:26;;;;;;;5.18;0.68;;;10.20;1.00;;;;;;5003348;28;20034;-76
2023/04/01 01:10:15;;;;;;;5.75;2.05;;;10.20;1.00;;;;;;4972761;28;20054;-75
2023/04/01 01:12:51;;;;;;;2.60;0.70;;;10.20;1.00;;;;;;5000373;28;20038;-75
2023/04/01 01:16:01;;;;;;;6.10;1.00;;;10.20;1.00;;;;;;4982248;28;20039;-74
2023/04/01 01:19:01;;;;;;;5.38;0.70;;;10.30;1.00;;;;;;4996140;28;20049;-75
2023/04/01 01:21:50;;;;;;;4.20;0.90;;;10.30;1.00;;;;;;4930844;28;20051;-75
2023/04/01 01:24:31;;;;;;;3.38;0.80;;;10.40;1.00;;;;;;5003504;28;20034;-75
2023/04/01 01:27:10;;;;;;;3.83;1.38;;;10.40;1.00;;;;;;5005014;28;20459;-74
2023/04/01 01:30:01;;;;;;;4.45;0.80;;;10.40;1.00;;;;;;5000729;28;20054;-75
2023/04/01 01:32:33;;;;;;;;;;;10.40;1.00;;;;;;4986621;28;20388;-75
2023/04/01 01:35:37;;;;;;;2.58;0.63;;;10.40;1.00;;;;;;5003098;28;19921;-76
2023/04/01 01:38:24;;;;;;;2.83;0.70;;;10.40;1.00;;;;;;4989008;28;20042;-76
2023/04/01 01:41:01;;;;;;;6.60;0.95;;;10.40;1.00;;;;;;5003400;28;20041;-76
2023/04/01 01:43:33;;;;;;;1.92;0.65;;;10.30;1.00;;;;;;4997528;28;20061;-76
2023/04/01 01:46:05;;;;;;;1.60;0.70;;;10.30;1.00;;;;;;4970794;28;20398;-75
2023/04/01 01:48:34;;;;;;;6.53;1.20;;;10.30;1.00;;;;;;4986625;28;20349;-76
2023/04/01 01:51:02;;;;;;;4.03;0.90;;;10.20;1.00;;;;;;4970481;28;20042;-75
2023/04/01 01:53:28;;;;;;;2.47;1.17;;;10.30;1.00;;;;;;5002569;28;20276;-76
2023/04/01 01:55:54;;;;;;;3.90;0.90;;;10.30;1.00;;;;;;4986318;28;20484;-76
2023/04/01 01:58:32;;;;;;;2.58;0.55;;;10.30;99.90;;;;;;4969747;28;20046;-76
2023/04/01 02:01:05;;;;;;;3.38;0.57;;;10.30;99.90;;;;;;4986005;28;20050;-75
2023/04/01 02:03:35;;;;;;;5.80;0.80;;;10.30;99.90;;;;;;5000548;28;20420;-75
2023/04/01 02:06:05;;;;;;;3.83;0.80;;;10.30;99.90;;;;;;5008283;28;20094;-76
2023/04/01 02:08:55;;;;;;;3.25;0.80;;;10.40;99.90;;;;;;5001823;28;20376;-75
2023/04/01 02:11:29;;;;;;;7.75;1.35;;;10.20;99.90;;;;;;4998516;28;20502;-75
2023/04/01 02:14:02;;;;;;;1.92;0.70;;;10.30;99.90;;;;;;4986786;28;20049;-76
2023/04/01 02:16:42;;;;;;;3.00;0.70;;;10.30;99.90;;;;;;4999047;28;20042;-76
2023/04/01 02:19:10;;;;;;;3.38;1.00;;;10.30;99.90;;;;;;4978533;28;20047;-76
2023/04/01 02:21:37;;;;;;;4.63;2.15;;;10.30;1.00;;;;;;4980279;28;20058;-76
2023/04/01 02:24:10;;;;;;;4.97;0.85;;;10.30;99.90;;;;;;5000229;28;20045;-76
2023/04/01 02:26:36;;;;;;;4.90;0.77;;;10.30;1.00;;;;;;5001759;28;20030;-76
2023/04/01 02:29:05;;;;;;;3.53;0.80;;;10.30;1.00;;;;;;5001482;28;20053;-76
2023/04/01 02:31:32;;;;;;;3.35;0.93;;;10.30;1.00;;;;;;4983569;28;20058;-76
2023/04/01 02:33:59;;;;;;;3.33;0.63;;;10.20;1.00;;;;;;5005175;28;20034;-75
2023/04/01 02:36:25;;;;;;;4.25;0.50;;;10.20;1.00;;;;;;4981365;28;20041;-76
2023/04/01 02:38:54;;;;;;;3.90;0.68;;;10.20;1.00;;;;;;4986483;28;20054;-76
2023/04/01 02:41:20;;;;;;;3.58;0.60;;;10.20;1.00;;;;;;4983929;28;20114;-76
2023/04/01 02:43:47;;;;;;;3.20;0.70;;;10.30;1.00;;;;;;4978331;28;20049;-76
2023/04/01 02:46:13;;;;;;;4.53;0.70;;;10.20;1.00;;;;;;4999801;28;20049;-76
2023/04/01 02:48:41;;;;;;;5.15;0.60;;;10.20;1.00;;;;;;4986039;28;20054;-76
2023/04/01 02:51:08;;;;;;;1.17;0.43;;;10.20;1.00;;;;;;5002777;28;20483;-75
2023/04/01 02:53:35;;;;;;;7.75;0.60;;;10.10;1.00;;;;;;4991192;28;20057;-76
2023/04/01 02:56:01;;;;;;;2.25;1.20;;;10.10;1.00;;;;;;4988112;28;20031;-77
2023/04/01 02:58:27;;;;;;;3.33;0.63;;;10.20;1.00;;;;;;5003671;28;20046;-83
2023/04/01 03:00:54;;;;;;;3.20;0.95;;;10.10;1.00;;;;;;4979330;28;20046;-77
2023/04/01 03:03:20;;;;;;;4.07;0.70;;;10.10;1.00;;;;;;5002661;28;20029;-77
2023/04/01 03:05:47;;;;;;;2.72;0.80;;;10.10;1.00;;;;;;5001638;28;20102;-76
2023/04/01 03:08:13;;;;;;;2.75;0.60;;;10.10;1.00;;;;;;5001198;28;20041;-76
2023/04/01 03:10:39;;;;;;;4.38;0.70;;;10.20;1.00;;;;;;4985377;28;20053;-76
2023/04/01 03:13:06;;;;;;;2.85;0.70;;;10.10;1.00;;;;;;5000222;28;20042;-76
2023/04/01 03:15:32;;;;;;;2.33;0.60;;;10.00;1.00;;;;;;5001796;28;20452;-76
2023/04/01 03:17:58;;;;;;;6.20;1.42;;;10.00;1.00;;;;;;5005174;28;20037;-76
2023/04/01 03:20:24;;;;;;;3.63;1.30;;;10.00;1.00;;;;;;5001536;28;20037;-75
2023/04/01 03:22:50;;;;;;;5.95;1.98;;;10.00;1.00;;;;;;4983346;28;20392;-75
2023/04/01 03:25:18;;;;;;;3.83;0.90;;;10.00;1.00;;;;;;5004239;28;20471;-76
2023/04/01 03:27:44;;;;;;;4.35;0.82;;;10.00;1.00;;;;;;4984315;28;20046;-77
2023/04/01 03:30:11;;;;;;;2.20;0.63;;;10.00;1.00;;;;;;5020272;28;20410;-76
2023/04/01 03:32:45;;;;;;;4.63;0.50;;;10.00;1.00;;;;;;4999376;28;20046;-75
2023/04/01 03:35:11;;;;;;;4.75;0.85;;;10.00;1.00;;;;;;5002177;28;20038;-76
2023/04/01 03:37:38;;;;;;;6.50;1.23;;;10.00;1.00;;;;;;4984005;28;20053;-76
2023/04/01 03:40:05;;;;;;;5.32;1.60;;;10.00;1.00;;;;;;5009418;28;20323;-76
2023/04/01 03:42:32;;;;;;;2.78;1.52;;;10.00;1.00;;;;;;5001357;28;20038;-76
2023/04/01 03:44:58;;;;;;;2.60;0.57;;;10.00;1.00;;;;;;5000648;28;20050;-75
2023/04/01 03:47:24;;;;;;;4.00;0.60;;;10.00;1.00;;;;;;4984566;28;20042;-76
2023/04/01 03:49:50;;;;;;;5.95;1.02;;;10.00;1.00;;;;;;5011772;28;20041;-76
2023/04/01 03:52:17;;;;;;;4.68;0.80;;;9.90;1.00;;;;;;5000047;28;20091;-75
2023/04/01 03:54:43;;;;;;;1.55;0.50;;;9.90;1.00;;;;;;5003208;28;20030;-77
2023/04/01 03:57:09;;;;;;;4.50;0.63;;;9.90;1.00;;;;;;5015613;28;20050;-76
2023/04/01 03:59:36;;;;;;;4.40;0.75;;;9.90;1.00;;;;;;4984859;28;20050;-75
2023/04/01 04:02:02;;;;;;;3.20;0.52;;;9.80;1.00;;;;;;5002445;28;20046;-76
2023/04/01 04:04:29;;;;;;;3.10;0.60;;;9.90;1.00;;;;;;4993633;28;20038;-76
2023/04/01 04:06:56;;;;;;;2.80;0.60;;;9.90;1.00;;;;;;4981666;28;20039;-76
2023/04/01 04:09:23;;;;;;;3.10;0.57;;;9.90;1.00;;;;;;4996251;28;20408;-77
2023/04/01 04:11:49;;;;;;;3.22;1.73;;;9.90;1.00;;;;;;4997971;28;20468;-76
2023/04/01 04:14:16;;;;;;;3.45;0.75;;;9.90;1.00;;;;;;5004276;28;20379;-78
2023/04/01 04:16:43;;;;;;;3.30;0.68;;;9.90;1.00;;;;;;5014711;28;20409;-76
2023/04/01 04:19:09;;;;;;;4.00;1.02;;;10.00;1.00;;;;;;5002511;28;20410;-75
2023/04/01 04:21:35;;;;;;;4.35;1.08;;;10.00;1.00;;;;;;4998574;28;20035;-75
2023/04/01 04:24:02;;;;;;;4.10;0.80;;;9.90;1.00;;;;;;5003256;28;20045;-75
2023/04/01 04:26:38;;;;;;;3.35;0.98;;;10.00;1.00;;;;;;4998668;28;20050;-75
2023/04/01 04:29:04;;;;;;;1.45;0.43;;;10.00;1.00;;;;;;5001371;28;20046;-75
2023/04/01 04:31:31;;;;;;;6.47;1.08;;;10.00;1.00;;;;;;5003530;28;20034;-75
2023/04/01 04:34:01;;;;;;;4.18;1.13;;;10.00;1.00;;;;;;4999607;28;20049;-75
2023/04/01 04:36:27;;;;;;;2.88;0.77;;;10.00;1.00;;;;;;5001229;28;20050;-75
2023/04/01 04:38:54;;;;;;;2.20;1.40;;;10.10;1.00;;;;;;4999969;28;20050;-75
2023/04/01 04:41:21;;;;;;;6.88;0.85;;;10.00;1.00;;;;;;5000303;28;20053;-76
2023/04/01 04:43:58;;;;;;;4.82;0.70;;;10.10;1.00;;;;;;4999734;28;20041;-76
2023/04/01 04:46:25;;;;;;;3.45;0.95;;;10.10;1.00;;;;;;5002615;28;20048;-76
2023/04/01 04:48:57;;;;;;;2.28;0.47;;;10.10;1.00;;;;;;5014471;28;20067;-76
2023/04/01 04:51:24;;;;;;;2.90;1.10;;;10.10;1.00;;;;;;4999084;28;20482;-76
2023/04/01 04:53:50;;;;;;;5.00;0.70;;;10.10;1.00;;;;;;5016495;28;20034;-75
2023/04/01 04:56:22;;;;;;;3.50;0.43;;;10.10;1.00;;;;;;5003363;28;20039;-75
2023/04/01 04:58:57;;;;;;;3.42;1.35;;;10.10;1.00;;;;;;5005068;28;20057;-76
2023/04/01 05:01:27;;;;;;;;;;;10.10;1.00;;;;;;5003028;28;20502;-76
2023/04/01 05:03:53;;;;;;;5.18;2.10;;;10.10;1.00;;;;;;5003264;28;19915;-75
2023/04/01 05:06:20;;;;;;;2.58;0.40;;;10.10;1.00;;;;;;5003853;28;20034;-75
2023/04/01 05:08:46;;;;;;;5.22;0.88;;;10.00;1.00;;;;;;5001523;28;20057;-76
2023/04/01 05:11:16;;;;;;;2.88;0.68;;;10.00;1.00;;;;;;5019705;28;20039;-76
2023/04/01 05:13:43;;;;;;;2.25;0.82;;;9.90;1.00;;;;;;5003405;28;20419;-76
2023/04/01 05:16:11;;;;;;;2.40;0.63;;;9.90;1.00;;;;;;5003075;28;20038;-76
2023/04/01 05:18:38;;;;;;;5.63;1.70;;;9.90;1.00;;;;;;4982135;28;20050;-75
2023/04/01 05:21:08;;;;;;;2.75;0.65;;;9.80;1.00;;;;;;5004729;28;20400;-75
2023/04/01 05:23:34;;;;;;;1.65;0.63;;;9.80;1.00;;;;;;5003812;28;20387;-76
2023/04/01 05:26:12;;;;;;;4.38;0.95;;;9.80;1.00;;;;;;5001497;28;20069;-75
2023/04/01 05:28:38;;;;;;;8.80;2.58;;;9.80;1.00;;;;;;4986421;28;20041;-76
2023/04/01 05:31:05;;;;;;;4.18;1.10;;;9.80;1.00;;;;;;5002968;28;20431;-76
2023/04/01 05:33:38;;;;;;;7.40;1.40;;;9.80;1.00;;;;;;5002909;28;20046;-77
2023/04/01 05:36:15;;;;;;;7.88;1.10;;;9.80;1.00;;;;;;5010770;28;20046;-76
2023/04/01 05:38:45;;;;;;;3.08;1.17;;;9.80;1.00;;;;;;5004939;28;20038;-76
2023/04/01 05:41:12;;;;;;;5.97;1.02;;;9.80;1.00;;;;;;5022208;28;20053;-76
2023/04/01 05:43:42;;;;;;;8.23;0.82;;;9.80;1.00;;;;;;5005509;28;20471;-76
2023/04/01 05:46:31;;;;;;;9.57;0.80;;;9.80;1.00;;;;;;5001131;28;20058;-77
2023/04/01 05:49:31;;;;;;;7.10;0.90;;;9.90;1.00;;;;;;5000135;28;20049;-75
2023/04/01 05:51:57;;;;;;;1.98;0.60;;;9.90;1.00;;;;;;5005847;28;20461;-76
2023/04/01 05:54:23;;;;;;;5.80;1.23;;;9.90;1.00;;;;;;5003271;28;20034;-75
2023/04/01 05:56:49;;;;;;;3.88;0.63;;;10.00;1.00;;;;;;4997338;28;20042;-76
2023/04/01 05:59:17;;;;;;;3.00;0.50;;;10.00;1.00;;;;;;5000425;28;20153;-76
2023/04/01 06:01:43;;;;;;;4.78;1.60;;;10.00;1.00;;;;;;5001015;28;20050;-76
2023/04/01 06:04:15;;;;;;;3.33;0.60;;;10.10;1.00;;;;;;5019963;28;20463;-76
2023/04/01 06:06:43;;;;;;;4.35;0.68;;;10.00;1.00;;;;;;5002851;28;20064;-75
2023/04/01 06:09:16;;;;;;;3.15;1.55;;;10.00;1.00;;;;;;5005779;28;20046;-75
2023/04/01 06:12:08;;;;;;;5.63;0.82;;;10.00;1.00;;;;;;5000620;28;20049;-75
2023/04/01 06:15:18;;;;;;;3.92;0.85;;;10.00;1.00;;;;;;4996428;28;20050;-76
2023/04/01 06:18:18;;;;;;;4.05;0.60;;;10.00;1.00;;;;;;5005619;28;20029;-76
2023/04/01 06:20:47;;;;;;;1.73;0.57;;;10.00;1.00;;;;;;5006147;28;20034;-75
2023/04/01 06:23:29;;;;;;;6.07;0.60;;;10.00;1.00;;;;;;4993303;28;20042;-75
2023/04/01 06:26:15;;;;;;;3.13;0.50;;;10.00;1.00;;;;;;4984700;28;20069;-76
2023/04/01 06:29:03;;;;;;;3.05;0.60;;;10.00;1.00;;;;;;5005402;28;20507;-76
2023/04/01 06:31:51;;;;;;;2.88;0.88;;;10.00;1.00;;;;;;5006858;28;20053;-76
2023/04/01 06:35:00;;;;;;;4.78;0.65;;;10.00;1.00;;;;;;5020010;28;20499;-76
2023/04/01 06:37:39;;;;;;;2.22;0.57;;;10.00;1.00;;;;;;5004268;28;20057;-76
2023/04/01 06:40:27;;;;;;;2.65;0.80;;;10.00;1.00;;;;;;5007595;28;20053;-76
2023/04/01 06:43:22;;;;;;;3.15;0.45;;;10.00;1.00;;;;;;5001447;28;20046;-85
2023/04/01 06:46:19;;;;;;;4.18;0.75;;;10.00;1.00;;;;;;4982294;28;20048;-76
2023/04/01 06:49:33;;;;;;;2.65;0.60;;;10.00;1.00;;;;;;4978742;28;20035;-76
2023/04/01 06:52:35;;;;;;;2.75;0.50;;;10.00;1.00;;;;;;4978222;28;20038;-76
2023/04/01 06:55:35;;;;;;;3.22;1.67;;;10.00;1.00;;;;;;5007573;28;20164;-77
2023/04/01 06:58:24;;;;;;;3.33;1.50;;;10.00;1.00;;;;;;5002666;28;20050;-73
2023/04/01 07:00:58;;;;;;;5.78;1.20;;;10.00;1.00;;;;;;5005709;28;20058;-74
2023/04/01 07:03:35;;;;;;;4.13;0.38;;;10.10;1.00;;;;;;5002906;28;20046;-74
2023/04/01 07:06:06;;;;;;;4.50;0.60;;;10.10;1.00;;;;;;5015993;28;20395;-74
2023/04/01 07:08:41;;;;;;;2.17;0.50;;;10.20;1.00;;;;;;4990094;28;20042;-74
2023/04/01 07:11:11;;;;;;;2.75;0.35;;;10.20;1.00;;;;;;4998288;28;20375;-82
2023/04/01 07:14:06;;;;;;;2.63;0.40;;;10.20;1.00;;;;;;4999155;28;20041;-82
2023/04/01 07:17:07;;;;;;;2.53;0.55;;;10.20;1.00;;;;;;5019704;28;20041;-81
2023/04/01 07:19:42;;;;;;;;;;;10.30;1.00;;;;;;4981904;28;20042;-80
2023/04/01 07:22:17;;;;;;;1.42;0.77;;;10.30;1.00;;;;;;5014920;28;19917;-81
2023/04/01 07:25:12;;;;;;;1.77;0.65;;;10.30;1.00;;;;;;5006237;28;20046;-80
2023/04/01 07:27:39;;;;;;;3.95;0.75;;;10.30;1.00;;;;;;4999344;28;20057;-81
2023/04/01 07:30:15;;;;;;;3.33;0.40;;;10.30;1.00;;;;;;4984051;28;20050;-76
2023/04/01 07:32:48;;;;;;;1.65;0.38;;;10.30;1.00;;;;;;5003708;28;20056;-75
2023/04/01 07:35:40;;;;;;;3.35;0.57;;;10.30;1.00;;;;;;4997470;28;20045;-76
2023/04/01 07:38:19;;;;;;;1.80;0.50;;;10.30;1.00;;;;;;4981233;28;20046;-76
2023/04/01 07:40:56;;;;;;;1.92;0.40;;;10.30;1.00;;;;;;4983964;28;20041;-77
2023/04/01 07:43:48;;;;;;;1.27;0.45;;;10.30;1.00;;;;;;4991678;28;20467;-75
2023/04/01 07:47:07;;;;;;;3.05;0.20;;;10.30;1.00;;;;;;4999418;28;20471;-75
2023/04/01 07:49:45;;;;;;;1.77;0.47;;;10.30;1.00;;;;;;4994857;28;20050;-80
2023/04/01 07:52:23;;;;;;;3.05;0.50;;;10.30;1.00;;;;;;4983407;28;20400;-76
2023/04/01 07:55:05;;;;;;;1.75;0.50;;;10.30;1.00;;;;;;4979019;28;20062;-76
2023/04/01 07:58:00;;;;;;;2.50;0.50;;;10.20;1.00;;;;;;4973732;28;20049;-76
2023/04/01 08:00:46;;;;;;;1.10;0.30;;;10.30;1.00;;;;;;4988720;28;20046;-76
2023/04/01 08:03:25;;;;;;;2.17;0.77;;;10.30;1.00;;;;;;5010159;28;20045;-76
2023/04/01 08:06:04;;;;;;;1.58;0.35;;;10.40;1.00;;;;;;4996243;28;20053;-76
2023/04/01 08:09:07;;;;;;;1.35;0.73;;;10.50;1.00;;;;;;4983800;28;20486;-76
2023/04/01 08:11:59;;;;;;;1.77;0.30;;;10.40;1.00;;;;;;4995626;28;20049;-75
2023/04/01 08:14:44;;;;;;;1.02;0.30;;;10.50;1.00;;;;;;5007493;28;20046;-75
2023/04/01 08:17:53;;;;;;;1.92;0.30;;;10.50;1.00;;;;;;4987414;28;20046;-80
2023/04/01 08:20:49;;;;;;;1.60;0.45;;;10.50;1.00;;;;;;5001438;28;20045;-76
2023/04/01 08:23:21;;;;;;;1.42;0.30;;;10.50;1.00;;;;;;4977785;28;20054;-76
2023/04/01 08:26:04;;;;;;;7.32;0.55;;;10.50;1.00;;;;;;4982500;28;20046;-77
2023/04/01 08:28:46;;;;;;;1.58;0.70;;;10.50;1.00;;;;;;4990949;28;20046;-75
2023/04/01 08:31:58;;;;;;;1.02;0.30;;;10.50;1.00;;;;;;4982896;28;20046;-75
2023/04/01 08:34:32;;;;;;;4.53;0.47;;;10.50;1.00;;;;;;4941908;28;20499;-75
2023/04/01 08:37:17;;;;;;;3.20;0.82;;;10.50;1.00;;;;;;4989760;28;20041;-77
2023/04/01 08:39:50;;;;;;;3.08;0.95;;;10.60;1.00;;;;;;5003160;28;20051;-76
2023/04/01 08:42:46;;;;;;;3.25;0.57;;;10.60;1.00;;;;;;4983063;28;20042;-76
2023/04/01 08:45:40;;;;;;;2.42;0.40;;;10.70;1.00;;;;;;4991347;28;20479;-76
2023/04/01 08:48:36;;;;;;;1.83;0.40;;;10.70;1.00;;;;;;5009093;28;20096;-75
2023/04/01 08:51:18;;;;;;;;;;;10.80;1.00;;;;;;4982405;28;20363;-74
2023/04/01 08:54:07;;;;;;;1.58;0.50;;;10.90;1.00;;;;;;4975743;28;19913;-74
2023/04/01 08:56:41;;;;;;;1.00;0.40;;;10.90;1.00;;;;;;4993262;28;20050;-74
2023/04/01 08:59:44;;;;;;;1.42;0.40;;;10.90;1.00;;;;;;4992220;28;20058;-76
2023/04/01 09:02:58;;;;;;;1.70;0.40;;;11.00;1.00;;;;;;5011106;28;20042;-73
2023/04/01 09:05:45;;;;;;;1.10;0.30;;;11.00;1.00;;;;;;4989045;28;20061;-75
2023/04/01 09:08:33;;;;;;;1.00;0.50;;;11.00;1.00;;;;;;5000552;28;20510;-75
2023/04/01 09:11:11;;;;;;;2.53;1.00;;;10.90;1.00;;;;;;4992609;28;20053;-75
2023/04/01 09:14:20;;;;;;;1.75;0.47;;;10.90;1.00;;;;;;5007972;28;20517;-74
2023/04/01 09:17:29;;;;;;;1.90;0.45;;;10.80;1.00;;;;;;4979428;28;20045;-74
2023/04/01 09:20:35;;;;;;;3.22;0.82;;;10.90;1.00;;;;;;4996249;28;20057;-75
2023/04/01 09:23:18;;;;;;;2.45;0.77;;;10.70;1.00;;;;;;4988250;28;20042;-75
2023/04/01 09:26:15;;;;;;;1.40;0.40;;;10.80;1.00;;;;;;5007296;28;20479;-73
2023/04/01 09:28:44;;;;;;;0.75;0.30;;;10.60;1.00;;;;;;5005792;28;20467;-73
2023/04/01 09:31:30;;;;;;;5.25;0.85;;;10.60;1.00;;;;;;5004705;28;20438;-73
2023/04/01 09:34:33;;;;;;;1.17;0.50;;;10.50;1.00;;;;;;4998544;28;20052;-75
2023/04/01 09:37:18;;;;;;;1.67;0.30;;;10.50;1.00;;;;;;4988219;28;20049;-73
2023/04/01 09:39:55;;;;;;;0.98;0.50;;;10.50;1.00;;;;;;4992806;28;20046;-77
2023/04/01 09:42:42;;;;;;;1.38;0.30;;;10.60;1.00;;;;;;5005272;28;20042;-74
2023/04/01 09:45:34;;;;;;;1.33;0.40;;;10.70;1.00;;;;;;5012102;28;20038;-75
2023/04/01 09:48:29;;;;;;;1.50;0.40;;;10.80;1.00;;;;;;4999667;28;20042;-79
2023/04/01 09:51:39;;;;;;;1.52;0.63;;;10.80;1.00;;;;;;5007162;28;20430;-73
2023/04/01 09:54:07;;;;;;;;;;;10.90;1.00;;;;;;4976446;28;20057;-75
2023/04/01 09:57:07;;;;;;;1.70;0.50;;;10.90;1.00;;;;;;4987924;28;19917;-74
2023/04/01 09:59:37;;;;;;;1.90;0.30;;;10.90;1.00;;;;;;4996263;28;20041;-75
2023/04/01 10:02:58;;;;;;;4.30;0.70;;;10.90;1.00;;;;;;5013187;28;20057;-73
2023/04/01 10:06:05;;;;;;;2.13;0.50;;;11.10;1.00;;;;;;5000964;28;20057;-73
2023/04/01 10:08:58;;;;;;;1.13;0.40;;;11.10;1.00;;;;;;5005954;28;20038;-75
2023/04/01 10:11:58;;;;;;;0.95;0.30;;;11.20;1.00;;;;;;5001223;28;20046;-75
2023/04/01 10:14:41;;;;;;;2.97;0.30;;;11.20;1.00;;;;;;4983972;28;20052;-77
2023/04/01 10:17:19;;;;;;;0.52;0.20;;;11.20;1.00;;;;;;4988980;28;20038;-74
2023/04/01 10:20:04;;;;;;;1.05;0.32;;;11.30;1.00;;;;;;5008411;28;20520;-74
2023/04/01 10:23:15;;;;;;;1.60;0.68;;;11.40;1.00;;;;;;4991319;28;20049;-76
2023/04/01 10:26:08;;;;;;;1.10;0.50;;;11.50;1.00;;;;;;5007812;28;20365;-74
2023/04/01 10:28:59;;;;;;;1.00;0.85;;;11.50;1.00;;;;;;4987000;28;20486;-74
2023/04/01 10:32:27;;;;;;;0.40;0.20;;;11.60;1.00;;;;;;4994734;28;20050;-75
2023/04/01 10:35:35;;;;;;;0.95;0.20;;;11.60;1.00;;;;;;4993253;28;20073;-78
2023/04/01 10:38:21;;;;;;;0.20;0.10;;;11.60;1.00;;;;;;5021586;28;20145;-74
2023/04/01 10:41:09;;;;;;;0.45;0.20;;;11.60;1.00;;;;;;5006544;28;20053;-74
2023/04/01 10:44:10;;;;;;;1.95;0.20;;;11.70;1.00;;;;;;4982039;28;20415;-74
2023/04/01 10:47:30;;;;;;;0.38;0.20;;;11.70;1.00;;;;;;5012753;28;20061;-77
2023/04/01 10:50:47;;;;;;;0.47;0.20;;;11.70;1.00;;;;;;4924180;29;20074;-79
2023/04/01 10:53:48;;;;;;;0.82;0.25;;;11.80;1.00;;;;;;4977300;28;20156;-76
2023/04/01 10:57:02;;;;;;;0.20;0.20;;;11.80;1.00;;;;;;4985581;28;20045;-75
2023/04/01 11:00:22;;;;;;;0.38;0.20;;;11.70;1.00;;;;;;4980587;28;20050;-78
2023/04/01 11:03:35;;;;;;;0.85;0.43;;;11.70;1.00;;;;;;5006174;28;20046;-75
2023/04/01 11:06:38;;;;;;;0.28;0.10;;;11.70;1.00;;;;;;5005213;28;20044;-75
2023/04/01 11:09:20;;;;;;;0.30;0.25;;;11.70;1.00;;;;;;5003587;28;20058;-75
2023/04/01 11:11:57;;;;;;;0.70;0.30;;;11.70;1.00;;;;;;5011052;28;20049;-76
2023/04/01 11:14:29;;;;;;;0.65;0.47;;;11.80;1.00;;;;;;4996609;28;20050;-75
2023/04/01 11:17:08;;;;;;;0.55;0.40;;;11.90;1.00;;;;;;5001692;28;20041;-81
2023/04/01 11:20:01;;;;;;;0.63;0.40;;;11.90;1.00;;;;;;5008364;28;20451;-76
2023/04/01 11:22:38;;;;;;;1.27;0.50;;;12.00;1.00;;;;;;5003829;28;20506;-75
2023/04/01 11:25:38;;;;;;;0.35;0.20;;;12.00;1.00;;;;;;5001321;28;20042;-75
2023/04/01 11:28:43;;;;;;;2.28;0.60;;;12.00;1.00;;;;;;5002535;28;20050;-75
2023/04/01 11:31:29;;;;;;;1.17;0.32;;;11.90;1.00;;;;;;4985064;28;20068;-75
2023/04/01 11:34:08;;;;;;;0.60;0.30;;;11.90;1.00;;;;;;5001142;28;20045;-75
2023/04/01 11:36:41;;;;;;;1.52;1.20;;;11.90;1.00;;;;;;4985974;28;20030;-75
2023/04/01 11:39:23;;;;;;;0.70;0.70;;;11.80;1.00;;;;;;4985812;28;20046;-75
2023/04/01 11:42:22;;;;;;;1.02;0.40;;;11.90;1.00;;;;;;5000965;28;20038;-77
2023/04/01 11:45:44;;;;;;;0.55;0.32;;;11.90;1.00;;;;;;5003080;28;20398;-75
2023/04/01 11:48:37;;;;;;;0.40;0.30;;;11.90;1.00;;;;;;4937126;28;20487;-75
2023/04/01 11:51:36;;;;;;;1.85;0.30;;;11.90;1.00;;;;;;4998549;28;20038;-79
2023/04/01 11:54:20;;;;;;;0.35;0.25;;;11.90;1.00;;;;;;4996724;28;20400;-77
2023/04/01 11:57:35;;;;;;;1.55;0.20;;;11.80;1.00;;;;;;5007154;28;20038;-76
2023/04/01 12:00:20;;;;;;;1.33;0.20;;;11.90;1.00;;;;;;4991251;28;20072;-83
2023/04/01 12:03:19;;;;;;;0.20;0.15;;;11.90;1.00;;;;;;5005461;28;20030;-76
2023/04/01 12:06:01;;;;;;;0.28;0.20;;;11.90;1.00;;;;;;5008776;28;20379;-75
2023/04/01 12:08:42;;;;;;;0.52;0.20;;;11.90;1.00;;;;;;4994104;28;20041;-76
2023/04/01 12:11:08;;;;;;;0.20;0.10;;;11.90;1.00;;;;;;4997512;28;20037;-75
2023/04/01 12:13:45;;;;;;;0.10;0.10;;;11.90;1.00;;;;;;5002539;28;20038;-75
2023/04/01 12:16:22;;;;;;;0.60;0.30;;;11.90;1.00;;;;;;5011712;28;20041;-76
2023/04/01 12:19:05;;;;;;;1.00;0.30;;;11.90;1.00;;;;;;5009325;28;20035;-74
2023/04/01 12:21:59;;;;;;;3.55;0.30;;;12.00;1.00;;;;;;5008679;28;20041;-76
2023/04/01 12:25:16;;;;;;;0.70;0.25;;;12.00;1.00;;;;;;4996619;28;20046;-75
2023/04/01 12:28:04;;;;;;;0.68;0.20;;;12.00;1.00;;;;;;4965732;28;20043;-78
2023/04/01 12:31:01;;;;;;;1.20;0.40;;;12.00;99.90;;;;;;4998048;28;20053;-76
2023/04/01 12:33:35;;;;;;;0.73;0.30;;;12.00;99.90;;;;;;4980865;28;20050;-77
2023/04/01 12:36:20;;;;;;;0.50;0.20;;;12.00;99.90;;;;;;4988307;28;20033;-81
2023/04/01 12:39:18;;;;;;;1.38;0.20;;;12.00;99.90;;;;;;4993373;28;20046;-74
2023/04/01 12:42:00;;;;;;;1.02;0.20;;;12.10;99.90;;;;;;4978282;28;20069;-75
2023/04/01 12:44:38;;;;;;;0.70;0.28;;;12.20;99.90;;;;;;4994193;28;20039;-75
2023/04/01 12:47:26;;;;;;;1.63;0.30;;;12.30;99.90;;;;;;4990085;28;20054;-75
2023/04/01 12:50:15;;;;;;;0.88;0.28;;;12.40;99.90;;;;;;4990040;28;20023;-75
2023/04/01 12:53:11;;;;;;;1.05;0.45;;;12.60;99.90;;;;;;4989560;28;20046;-75
2023/04/01 12:55:42;;;;;;;2.45;0.90;;;12.90;99.90;;;;;;4991840;28;20377;-75
2023/04/01 12:58:18;;;;;;;0.85;0.32;;;13.00;99.90;;;;;;4989619;28;20049;-76
2023/04/01 13:01:02;;;;;;;0.30;0.20;;;12.90;99.90;;;;;;4999415;28;20046;-76
2023/04/01 13:03:55;;;;;;;1.30;0.32;;;12.80;99.90;;;;;;4997898;28;20034;-75
2023/04/01 13:06:51;;;;;;;1.55;0.88;;;12.80;99.90;;;;;;4991961;28;20041;-75
2023/04/01 13:09:25;;;;;;;1.45;0.30;;;12.70;99.90;;;;;;4996722;28;20038;-75
2023/04/01 13:12:09;;;;;;;1.27;0.30;;;12.50;99.90;;;;;;4992068;28;20033;-75
2023/04/01 13:14:47;;;;;;;0.43;0.20;;;12.50;99.90;;;;;;4995805;28;20034;-75
2023/04/01 13:17:21;;;;;;;0.40;0.20;;;12.40;99.90;;;;;;5001485;28;20046;-75
2023/04/01 13:20:13;;;;;;;0.88;0.25;;;12.40;99.90;;;;;;4999140;28;20038;-77
2023/04/01 13:22:39;;;;;;;0.25;0.20;;;12.30;99.90;;;;;;5004392;28;20045;-76
2023/04/01 13:25:38;;;;;;;1.27;0.30;;;12.20;99.90;;;;;;5008086;28;20045;-75
2023/04/01 13:28:26;;;;;;;0.40;0.30;;;12.20;99.90;;;;;;5001463;28;20053;-77
2023/04/01 13:31:10;;;;;;;0.20;0.20;;;12.10;99.90;;;;;;4979712;28;20047;-76
2023/04/01 13:34:15;;;;;;;0.50;0.30;;;12.10;1.00;;;;;;5003541;28;20061;-75
2023/04/01 13:37:06;;;;;;;0.75;0.35;;;12.10;1.00;;;;;;4998678;28;20037;-75
2023/04/01 13:39:35;;;;;;;;;;;12.10;1.00;;;;;;5006967;28;20375;-73
2023/04/01 13:42:11;;;;;;;1.23;0.30;;;12.10;1.00;;;;;;4990768;28;19909;-78
2023/04/01 13:44:52;;;;;;;2.15;0.57;;;12.20;1.00;;;;;;4995262;28;20038;-74
2023/04/01 13:47:24;;;;;;;;;;;12.20;99.90;;;;;;4997604;28;20388;-75
2023/04/01 13:50:05;;;;;;;0.88;0.57;;;12.20;99.90;;;;;;5006664;28;20290;-75
2023/04/01 13:53:00;;;;;;;0.90;0.70;;;12.20;99.90;;;;;;5002633;28;20069;-74
2023/04/01 13:55:58;;;;;;;0.88;0.30;;;12.20;99.90;;;;;;5001230;28;20034;-74
2023/04/01 13:58:36;;;;;;;2.53;0.70;;;12.20;99.90;;;;;;5004516;28;20045;-74
2023/04/01 14:01:09;;;;;;;0.50;0.30;;;12.20;99.90;;;;;;5005772;28;20037;-78
2023/04/01 14:03:56;;;;;;;2.65;0.88;;;12.20;99.90;;;;;;5004697;28;20026;-74
2023/04/01 14:06:46;;;;;;;2.33;1.23;;;12.20;99.90;;;;;;4999842;28;20037;-74